Аэропорт
Батуми (UGSB)

 UGSB / BUS
ЗЦ Ростов-на-Дону
Тбилиси* (UGGG)
Тбилиси (UGGG)
 41.61030, 41.59970  / 105 ft

 UGSB 132300Z 1400/1424 13014KT 9999 SCT030 BKN100 TX09/1411Z TN05/1401Z TEMPO 1400/1402 SHRA SCT025CB TEPO 1409/1414 04007KT PROB40 TEMPO 1414/1417 SHRA SCT025CB
UGSB_APP
Название сценария Тип сценария Flight Simulator 9 Flight Simulator X Prepar3D v2 Prepar3D v3 Prepar3D v4 xPlane
Batumi Freeware бесплатный

Международный аэропорт Батуми является вторым по пассажиропотоку в стране. Расположен на берегу Черного моря, с юга и востока окружен горами. Имеет статус внутреннего аэропорта Турции. Просим обратить внимание, что посадка производится только по курсу 130, а взлет только по курсу 310. 

Взлетно-посадочные полосы (ВПП)
Number Length Surface ILS
13 2620 м

асфальто-
бетон

CATI 110.3
31  

 



2018 © VATRUS division